sensor_id;sensor_type;location;lat;lon;timestamp;pressure;altitude;pressure_sealevel;temperature;humidity
20027;BME280;10174;42.688;23.344;2023-11-21T00:01:39;95176.41;;;2.51;100.00
20027;BME280;10174;42.688;23.344;2023-11-21T00:04:05;95202.84;;;2.64;100.00
20027;BME280;10174;42.688;23.344;2023-11-21T00:06:32;95206.69;;;2.68;100.00
20027;BME280;10174;42.688;23.344;2023-11-21T00:08:58;95203.44;;;2.66;100.00
20027;BME280;10174;42.688;23.344;2023-11-21T00:11:23;95198.34;;;2.65;100.00
20027;BME280;10174;42.688;23.344;2023-11-21T00:13:50;95180.28;;;2.55;100.00
20027;BME280;10174;42.688;23.344;2023-11-21T00:16:15;95203.59;;;2.72;100.00
20027;BME280;10174;42.688;23.344;2023-11-21T00:18:41;95176.56;;;2.56;100.00
20027;BME280;10174;42.688;23.344;2023-11-21T00:21:08;95185.88;;;2.65;100.00
20027;BME280;10174;42.688;23.344;2023-11-21T00:23:34;95132.28;;;2.31;100.00
20027;BME280;10174;42.688;23.344;2023-11-21T00:25:59;95212.91;;;2.81;100.00
20027;BME280;10174;42.688;23.344;2023-11-21T00:28:26;95207.38;;;2.82;100.00
20027;BME280;10174;42.688;23.344;2023-11-21T00:30:51;95190.66;;;2.82;100.00
20027;BME280;10174;42.688;23.344;2023-11-21T00:33:17;95158.50;;;2.72;100.00
20027;BME280;10174;42.688;23.344;2023-11-21T00:36:01;95190.22;;;2.85;100.00
20027;BME280;10174;42.688;23.344;2023-11-21T00:38:26;95193.78;;;2.97;100.00
20027;BME280;10174;42.688;23.344;2023-11-21T00:40:52;95197.06;;;2.99;100.00
20027;BME280;10174;42.688;23.344;2023-11-21T00:43:24;95097.56;;;2.40;100.00
20027;BME280;10174;42.688;23.344;2023-11-21T00:45:49;95200.72;;;2.98;100.00
20027;BME280;10174;42.688;23.344;2023-11-21T00:48:15;95189.75;;;2.95;100.00
20027;BME280;10174;42.688;23.344;2023-11-21T00:50:40;95166.63;;;2.77;100.00
20027;BME280;10174;42.688;23.344;2023-11-21T00:53:06;95191.00;;;2.92;100.00
20027;BME280;10174;42.688;23.344;2023-11-21T00:55:33;95177.53;;;2.87;100.00
20027;BME280;10174;42.688;23.344;2023-11-21T00:57:58;95171.50;;;2.80;100.00
20027;BME280;10174;42.688;23.344;2023-11-21T01:00:25;95195.72;;;2.90;100.00
20027;BME280;10174;42.688;23.344;2023-11-21T01:02:50;95175.47;;;2.71;100.00
20027;BME280;10174;42.688;23.344;2023-11-21T01:05:16;95134.28;;;2.43;100.00
20027;BME280;10174;42.688;23.344;2023-11-21T01:07:41;95191.09;;;2.79;100.00
20027;BME280;10174;42.688;23.344;2023-11-21T01:10:07;95188.66;;;2.77;100.00
20027;BME280;10174;42.688;23.344;2023-11-21T01:12:37;95191.97;;;2.73;100.00
20027;BME280;10174;42.688;23.344;2023-11-21T01:15:04;95159.94;;;2.49;100.00
20027;BME280;10174;42.688;23.344;2023-11-21T01:17:51;95180.06;;;2.57;100.00
20027;BME280;10174;42.688;23.344;2023-11-21T01:20:17;95183.09;;;2.60;100.00
20027;BME280;10174;42.688;23.344;2023-11-21T01:22:42;95194.56;;;2.54;100.00
20027;BME280;10174;42.688;23.344;2023-11-21T01:25:08;95195.34;;;2.55;100.00
20027;BME280;10174;42.688;23.344;2023-11-21T01:27:34;95188.91;;;2.44;100.00
20027;BME280;10174;42.688;23.344;2023-11-21T01:30:01;95190.53;;;2.45;100.00
20027;BME280;10174;42.688;23.344;2023-11-21T01:32:27;95183.88;;;2.36;100.00
20027;BME280;10174;42.688;23.344;2023-11-21T01:34:54;95176.69;;;2.43;100.00
20027;BME280;10174;42.688;23.344;2023-11-21T01:37:20;95173.50;;;2.34;100.00
20027;BME280;10174;42.688;23.344;2023-11-21T01:39:47;95165.25;;;2.10;100.00
20027;BME280;10174;42.688;23.344;2023-11-21T01:42:12;95191.47;;;2.25;100.00
20027;BME280;10174;42.688;23.344;2023-11-21T01:44:39;95194.78;;;2.21;100.00
20027;BME280;10174;42.688;23.344;2023-11-21T01:47:08;95187.47;;;2.16;100.00
20027;BME280;10174;42.688;23.344;2023-11-21T01:49:35;95190.13;;;2.16;100.00
20027;BME280;10174;42.688;23.344;2023-11-21T01:52:01;95156.56;;;1.96;100.00
20027;BME280;10174;42.688;23.344;2023-11-21T01:54:29;95147.63;;;1.98;100.00
20027;BME280;10174;42.688;23.344;2023-11-21T01:57:00;95154.56;;;1.99;100.00
20027;BME280;10174;42.688;23.344;2023-11-21T01:59:37;95180.78;;;2.07;100.00
20027;BME280;10174;42.688;23.344;2023-11-21T02:02:06;95186.69;;;2.09;100.00
20027;BME280;10174;42.688;23.344;2023-11-21T02:04:33;95172.47;;;1.96;100.00
20027;BME280;10174;42.688;23.344;2023-11-21T02:06:59;95182.84;;;2.05;100.00
20027;BME280;10174;42.688;23.344;2023-11-21T02:09:26;95172.91;;;1.93;100.00
20027;BME280;10174;42.688;23.344;2023-11-21T02:11:53;95182.69;;;1.93;100.00
20027;BME280;10174;42.688;23.344;2023-11-21T02:14:19;95153.88;;;1.71;100.00
20027;BME280;10174;42.688;23.344;2023-11-21T02:16:51;95184.78;;;1.84;100.00
20027;BME280;10174;42.688;23.344;2023-11-21T02:19:20;95165.28;;;1.72;100.00
20027;BME280;10174;42.688;23.344;2023-11-21T02:21:51;95187.59;;;1.89;100.00
20027;BME280;10174;42.688;23.344;2023-11-21T02:24:21;95181.28;;;1.90;100.00
20027;BME280;10174;42.688;23.344;2023-11-21T02:26:47;95187.19;;;1.92;100.00
20027;BME280;10174;42.688;23.344;2023-11-21T02:29:13;95182.06;;;1.91;100.00
20027;BME280;10174;42.688;23.344;2023-11-21T02:31:39;95174.19;;;1.84;100.00
20027;BME280;10174;42.688;23.344;2023-11-21T02:34:16;95175.56;;;1.93;100.00
20027;BME280;10174;42.688;23.344;2023-11-21T02:36:43;95170.88;;;1.89;100.00
20027;BME280;10174;42.688;23.344;2023-11-21T02:39:09;95145.72;;;1.73;100.00
20027;BME280;10174;42.688;23.344;2023-11-21T02:41:36;95169.47;;;1.86;100.00
20027;BME280;10174;42.688;23.344;2023-11-21T02:44:02;95176.41;;;1.87;100.00
20027;BME280;10174;42.688;23.344;2023-11-21T02:46:27;95152.44;;;1.69;100.00
20027;BME280;10174;42.688;23.344;2023-11-21T02:48:53;95178.25;;;1.80;100.00
20027;BME280;10174;42.688;23.344;2023-11-21T02:51:22;95183.22;;;1.70;100.00
20027;BME280;10174;42.688;23.344;2023-11-21T02:53:48;95158.00;;;1.54;100.00
20027;BME280;10174;42.688;23.344;2023-11-21T02:56:13;95185.25;;;1.68;100.00
20027;BME280;10174;42.688;23.344;2023-11-21T02:58:41;95154.34;;;1.55;100.00
20027;BME280;10174;42.688;23.344;2023-11-21T03:01:09;95174.84;;;1.73;100.00
20027;BME280;10174;42.688;23.344;2023-11-21T03:03:34;95162.88;;;1.64;100.00
20027;BME280;10174;42.688;23.344;2023-11-21T03:06:02;95174.66;;;1.68;100.00
20027;BME280;10174;42.688;23.344;2023-11-21T03:08:28;95176.91;;;1.64;100.00
20027;BME280;10174;42.688;23.344;2023-11-21T03:10:53;95160.03;;;1.58;100.00
20027;BME280;10174;42.688;23.344;2023-11-21T03:13:18;95171.78;;;1.69;100.00
20027;BME280;10174;42.688;23.344;2023-11-21T03:15:44;95126.69;;;1.44;100.00
20027;BME280;10174;42.688;23.344;2023-11-21T03:18:10;95175.44;;;1.75;100.00
20027;BME280;10174;42.688;23.344;2023-11-21T03:20:35;95049.47;;;1.02;100.00
20027;BME280;10174;42.688;23.344;2023-11-21T03:23:01;95188.44;;;1.83;100.00
20027;BME280;10174;42.688;23.344;2023-11-21T03:25:27;95187.03;;;1.81;100.00
20027;BME280;10174;42.688;23.344;2023-11-21T03:27:52;95165.31;;;1.65;100.00
20027;BME280;10174;42.688;23.344;2023-11-21T03:30:18;95162.44;;;1.67;100.00
20027;BME280;10174;42.688;23.344;2023-11-21T03:32:44;95171.19;;;1.67;100.00
20027;BME280;10174;42.688;23.344;2023-11-21T03:35:09;95192.56;;;1.79;100.00
20027;BME280;10174;42.688;23.344;2023-11-21T03:37:35;95169.34;;;1.68;100.00
20027;BME280;10174;42.688;23.344;2023-11-21T03:40:01;95174.44;;;1.76;100.00
20027;BME280;10174;42.688;23.344;2023-11-21T03:42:29;95149.41;;;1.65;100.00
20027;BME280;10174;42.688;23.344;2023-11-21T03:44:54;95182.28;;;1.89;100.00
20027;BME280;10174;42.688;23.344;2023-11-21T03:47:19;95173.38;;;1.84;100.00
20027;BME280;10174;42.688;23.344;2023-11-21T03:49:45;95179.84;;;1.88;100.00
20027;BME280;10174;42.688;23.344;2023-11-21T03:52:10;95164.38;;;1.91;100.00
20027;BME280;10174;42.688;23.344;2023-11-21T03:54:36;95167.00;;;1.91;100.00
20027;BME280;10174;42.688;23.344;2023-11-21T03:57:02;95146.25;;;1.82;100.00
20027;BME280;10174;42.688;23.344;2023-11-21T03:59:28;95083.72;;;1.42;100.00
20027;BME280;10174;42.688;23.344;2023-11-21T04:01:55;95166.81;;;1.93;100.00
20027;BME280;10174;42.688;23.344;2023-11-21T04:04:22;95091.25;;;1.45;100.00
20027;BME280;10174;42.688;23.344;2023-11-21T04:06:48;95154.63;;;1.85;100.00
20027;BME280;10174;42.688;23.344;2023-11-21T04:09:13;95159.09;;;1.85;100.00
20027;BME280;10174;42.688;23.344;2023-11-21T04:11:38;95154.97;;;1.95;100.00
20027;BME280;10174;42.688;23.344;2023-11-21T04:14:04;95159.91;;;1.85;100.00
20027;BME280;10174;42.688;23.344;2023-11-21T04:16:29;95145.03;;;1.84;100.00
20027;BME280;10174;42.688;23.344;2023-11-21T04:18:55;95152.97;;;1.84;100.00
20027;BME280;10174;42.688;23.344;2023-11-21T04:21:20;95090.22;;;1.46;100.00
20027;BME280;10174;42.688;23.344;2023-11-21T04:23:45;95124.69;;;1.78;100.00
20027;BME280;10174;42.688;23.344;2023-11-21T04:26:11;95126.13;;;1.74;100.00
20027;BME280;10174;42.688;23.344;2023-11-21T04:28:37;95151.97;;;1.85;100.00
20027;BME280;10174;42.688;23.344;2023-11-21T04:31:02;95160.28;;;1.89;100.00
20027;BME280;10174;42.688;23.344;2023-11-21T04:33:28;95141.59;;;1.77;100.00
20027;BME280;10174;42.688;23.344;2023-11-21T04:35:54;95156.22;;;1.86;100.00
20027;BME280;10174;42.688;23.344;2023-11-21T04:38:19;95138.56;;;1.73;100.00
20027;BME280;10174;42.688;23.344;2023-11-21T04:40:45;95162.19;;;1.75;100.00
20027;BME280;10174;42.688;23.344;2023-11-21T04:43:10;95153.03;;;1.71;100.00
20027;BME280;10174;42.688;23.344;2023-11-21T04:45:36;95160.19;;;1.70;100.00
20027;BME280;10174;42.688;23.344;2023-11-21T04:48:01;95155.63;;;1.84;100.00
20027;BME280;10174;42.688;23.344;2023-11-21T04:50:27;95157.06;;;1.80;100.00
20027;BME280;10174;42.688;23.344;2023-11-21T04:52:52;95153.47;;;1.68;100.00
20027;BME280;10174;42.688;23.344;2023-11-21T04:55:18;95171.78;;;1.76;100.00
20027;BME280;10174;42.688;23.344;2023-11-21T04:57:44;95165.22;;;1.85;100.00
20027;BME280;10174;42.688;23.344;2023-11-21T05:00:11;95094.72;;;1.39;100.00
20027;BME280;10174;42.688;23.344;2023-11-21T05:02:37;95164.81;;;1.82;100.00
20027;BME280;10174;42.688;23.344;2023-11-21T05:05:03;95169.03;;;1.89;100.00
20027;BME280;10174;42.688;23.344;2023-11-21T05:07:31;95169.44;;;1.93;100.00
20027;BME280;10174;42.688;23.344;2023-11-21T05:09:57;95168.19;;;2.02;100.00
20027;BME280;10174;42.688;23.344;2023-11-21T05:12:23;95157.94;;;2.06;100.00
20027;BME280;10174;42.688;23.344;2023-11-21T05:14:49;95152.00;;;2.10;100.00
20027;BME280;10174;42.688;23.344;2023-11-21T05:17:15;95130.88;;;2.04;100.00
20027;BME280;10174;42.688;23.344;2023-11-21T05:19:40;95159.31;;;2.15;100.00
20027;BME280;10174;42.688;23.344;2023-11-21T05:22:06;95133.72;;;2.02;100.00
20027;BME280;10174;42.688;23.344;2023-11-21T05:24:31;95148.28;;;2.18;100.00
20027;BME280;10174;42.688;23.344;2023-11-21T05:26:57;95130.44;;;2.07;100.00
20027;BME280;10174;42.688;23.344;2023-11-21T05:29:23;95149.16;;;2.12;100.00
20027;BME280;10174;42.688;23.344;2023-11-21T05:31:49;95161.16;;;2.14;100.00
20027;BME280;10174;42.688;23.344;2023-11-21T05:34:15;95169.50;;;2.18;100.00
20027;BME280;10174;42.688;23.344;2023-11-21T05:36:43;95065.94;;;1.56;100.00
20027;BME280;10174;42.688;23.344;2023-11-21T05:39:08;95137.38;;;2.08;100.00
20027;BME280;10174;42.688;23.344;2023-11-21T05:41:35;95173.69;;;2.33;100.00
20027;BME280;10174;42.688;23.344;2023-11-21T05:44:00;95180.03;;;2.31;100.00
20027;BME280;10174;42.688;23.344;2023-11-21T05:46:26;95172.50;;;2.28;100.00
20027;BME280;10174;42.688;23.344;2023-11-21T05:48:51;95178.38;;;2.30;100.00
20027;BME280;10174;42.688;23.344;2023-11-21T05:51:17;95175.50;;;2.39;100.00
20027;BME280;10174;42.688;23.344;2023-11-21T05:53:42;95168.53;;;2.44;100.00
20027;BME280;10174;42.688;23.344;2023-11-21T05:56:08;95139.38;;;2.38;100.00
20027;BME280;10174;42.688;23.344;2023-11-21T05:58:33;95159.84;;;2.56;100.00
20027;BME280;10174;42.688;23.344;2023-11-21T06:00:59;95165.44;;;2.47;100.00
20027;BME280;10174;42.688;23.344;2023-11-21T06:03:24;95169.25;;;2.52;100.00
20027;BME280;10174;42.688;23.344;2023-11-21T06:05:50;95169.16;;;2.65;100.00
20027;BME280;10174;42.688;23.344;2023-11-21T06:08:15;95169.53;;;2.68;100.00
20027;BME280;10174;42.688;23.344;2023-11-21T06:10:42;95175.28;;;2.65;100.00
20027;BME280;10174;42.688;23.344;2023-11-21T06:13:09;95162.50;;;2.56;100.00
20027;BME280;10174;42.688;23.344;2023-11-21T06:15:35;95158.63;;;2.58;100.00
20027;BME280;10174;42.688;23.344;2023-11-21T06:18:01;95149.63;;;2.59;100.00
20027;BME280;10174;42.688;23.344;2023-11-21T06:20:27;95162.19;;;2.71;100.00
20027;BME280;10174;42.688;23.344;2023-11-21T06:22:53;95181.69;;;2.83;100.00
20027;BME280;10174;42.688;23.344;2023-11-21T06:25:19;95179.78;;;2.90;100.00
20027;BME280;10174;42.688;23.344;2023-11-21T06:27:46;95172.22;;;2.87;100.00
20027;BME280;10174;42.688;23.344;2023-11-21T06:30:15;95177.28;;;2.95;100.00
20027;BME280;10174;42.688;23.344;2023-11-21T06:32:42;95188.81;;;3.08;100.00
20027;BME280;10174;42.688;23.344;2023-11-21T06:35:10;95185.28;;;3.14;100.00
20027;BME280;10174;42.688;23.344;2023-11-21T06:37:36;95182.41;;;3.34;100.00
20027;BME280;10174;42.688;23.344;2023-11-21T06:40:02;95193.84;;;3.34;100.00
20027;BME280;10174;42.688;23.344;2023-11-21T06:42:31;95188.13;;;3.37;100.00
20027;BME280;10174;42.688;23.344;2023-11-21T06:44:58;95165.69;;;3.33;100.00
20027;BME280;10174;42.688;23.344;2023-11-21T06:47:24;95186.41;;;3.62;100.00
20027;BME280;10174;42.688;23.344;2023-11-21T06:49:50;95072.44;;;2.86;100.00
20027;BME280;10174;42.688;23.344;2023-11-21T06:52:16;95180.84;;;3.63;100.00
20027;BME280;10174;42.688;23.344;2023-11-21T06:54:42;95171.41;;;3.67;100.00
20027;BME280;10174;42.688;23.344;2023-11-21T06:57:07;95175.03;;;3.73;100.00
20027;BME280;10174;42.688;23.344;2023-11-21T06:59:33;95178.63;;;3.79;100.00
20027;BME280;10174;42.688;23.344;2023-11-21T07:01:59;95182.16;;;4.09;100.00
20027;BME280;10174;42.688;23.344;2023-11-21T07:04:24;95199.28;;;3.95;100.00
20027;BME280;10174;42.688;23.344;2023-11-21T07:06:53;95169.78;;;3.85;100.00
20027;BME280;10174;42.688;23.344;2023-11-21T07:09:19;95193.81;;;4.08;100.00
20027;BME280;10174;42.688;23.344;2023-11-21T07:11:48;95150.50;;;3.89;100.00
20027;BME280;10174;42.688;23.344;2023-11-21T07:14:14;95044.84;;;3.43;100.00
20027;BME280;10174;42.688;23.344;2023-11-21T07:16:39;95183.47;;;4.31;100.00
20027;BME280;10174;42.688;23.344;2023-11-21T07:19:08;95184.88;;;4.33;100.00
20027;BME280;10174;42.688;23.344;2023-11-21T07:21:35;95077.91;;;3.59;100.00
20027;BME280;10174;42.688;23.344;2023-11-21T07:24:04;95152.91;;;4.09;100.00
20027;BME280;10174;42.688;23.344;2023-11-21T07:26:32;95178.41;;;4.41;100.00
20027;BME280;10174;42.688;23.344;2023-11-21T07:28:59;95176.13;;;4.44;100.00
20027;BME280;10174;42.688;23.344;2023-11-21T07:31:25;95182.13;;;4.52;100.00
20027;BME280;10174;42.688;23.344;2023-11-21T07:33:51;95187.50;;;4.63;100.00
20027;BME280;10174;42.688;23.344;2023-11-21T07:36:16;95177.41;;;4.66;100.00
20027;BME280;10174;42.688;23.344;2023-11-21T07:38:48;95168.53;;;4.72;99.56
20027;BME280;10174;42.688;23.344;2023-11-21T07:41:14;95150.13;;;4.58;99.03
20027;BME280;10174;42.688;23.344;2023-11-21T07:43:41;95143.75;;;4.48;99.44
20027;BME280;10174;42.688;23.344;2023-11-21T07:46:07;95157.41;;;4.63;100.00
20027;BME280;10174;42.688;23.344;2023-11-21T07:48:33;95169.59;;;4.71;99.37
20027;BME280;10174;42.688;23.344;2023-11-21T07:50:59;95177.13;;;4.86;98.96
20027;BME280;10174;42.688;23.344;2023-11-21T07:53:25;95180.38;;;4.88;98.77
20027;BME280;10174;42.688;23.344;2023-11-21T07:55:51;95175.59;;;4.90;98.55
20027;BME280;10174;42.688;23.344;2023-11-21T07:58:17;95159.88;;;5.00;98.25
20027;BME280;10174;42.688;23.344;2023-11-21T08:00:43;95145.88;;;5.05;97.33
20027;BME280;10174;42.688;23.344;2023-11-21T08:03:08;95164.94;;;5.25;96.45
20027;BME280;10174;42.688;23.344;2023-11-21T08:05:34;95153.63;;;5.30;96.75
20027;BME280;10174;42.688;23.344;2023-11-21T08:07:59;95112.97;;;5.23;96.13
20027;BME280;10174;42.688;23.344;2023-11-21T08:10:25;95167.91;;;5.64;94.70
20027;BME280;10174;42.688;23.344;2023-11-21T08:12:51;95123.94;;;5.50;93.64
20027;BME280;10174;42.688;23.344;2023-11-21T08:15:17;95137.22;;;5.62;93.81
20027;BME280;10174;42.688;23.344;2023-11-21T08:17:43;95118.47;;;5.57;92.20
20027;BME280;10174;42.688;23.344;2023-11-21T08:20:09;95154.97;;;5.97;92.35
20027;BME280;10174;42.688;23.344;2023-11-21T08:22:36;95157.28;;;6.05;91.12
20027;BME280;10174;42.688;23.344;2023-11-21T08:25:02;95160.72;;;6.17;90.29
20027;BME280;10174;42.688;23.344;2023-11-21T08:27:29;95058.19;;;5.84;89.34
20027;BME280;10174;42.688;23.344;2023-11-21T08:29:55;95140.09;;;6.58;87.91
20027;BME280;10174;42.688;23.344;2023-11-21T08:32:22;95146.53;;;6.63;87.38
20027;BME280;10174;42.688;23.344;2023-11-21T08:34:47;95142.81;;;6.64;86.97
20027;BME280;10174;42.688;23.344;2023-11-21T08:37:16;95149.78;;;6.82;86.41
20027;BME280;10174;42.688;23.344;2023-11-21T08:39:43;95133.13;;;6.74;85.11
20027;BME280;10174;42.688;23.344;2023-11-21T08:42:08;95152.88;;;6.73;85.47
20027;BME280;10174;42.688;23.344;2023-11-21T08:44:34;95137.00;;;6.67;85.84
20027;BME280;10174;42.688;23.344;2023-11-21T08:46:59;95053.53;;;6.20;86.47
20027;BME280;10174;42.688;23.344;2023-11-21T08:49:24;95159.97;;;6.68;85.62
20027;BME280;10174;42.688;23.344;2023-11-21T08:51:52;95122.91;;;6.54;85.88
20027;BME280;10174;42.688;23.344;2023-11-21T08:54:20;95139.84;;;6.77;85.42
20027;BME280;10174;42.688;23.344;2023-11-21T08:56:46;95112.34;;;6.76;85.52
20027;BME280;10174;42.688;23.344;2023-11-21T08:59:12;95123.72;;;7.06;84.73
20027;BME280;10174;42.688;23.344;2023-11-21T09:01:39;95031.69;;;6.57;83.10
20027;BME280;10174;42.688;23.344;2023-11-21T09:04:05;95119.09;;;7.18;82.89
20027;BME280;10174;42.688;23.344;2023-11-21T09:06:30;95112.53;;;7.09;82.69
20027;BME280;10174;42.688;23.344;2023-11-21T09:08:56;95077.38;;;7.17;82.45
20027;BME280;10174;42.688;23.344;2023-11-21T09:11:21;95075.09;;;7.48;81.83
20027;BME280;10174;42.688;23.344;2023-11-21T09:13:46;95069.81;;;7.53;81.47
20027;BME280;10174;42.688;23.344;2023-11-21T09:16:14;95072.66;;;7.69;80.60
20027;BME280;10174;42.688;23.344;2023-11-21T09:18:40;95021.38;;;7.49;79.84
20027;BME280;10174;42.688;23.344;2023-11-21T09:21:06;95069.63;;;7.82;81.09
20027;BME280;10174;42.688;23.344;2023-11-21T09:23:31;95069.63;;;7.82;80.60
20027;BME280;10174;42.688;23.344;2023-11-21T09:25:57;95042.09;;;7.59;80.54
20027;BME280;10174;42.688;23.344;2023-11-21T09:28:25;95064.09;;;7.66;81.69
20027;BME280;10174;42.688;23.344;2023-11-21T09:30:52;95037.94;;;7.74;81.26
20027;BME280;10174;42.688;23.344;2023-11-21T09:33:18;95022.47;;;7.76;80.81
20027;BME280;10174;42.688;23.344;2023-11-21T09:35:44;95029.69;;;7.75;80.52
20027;BME280;10174;42.688;23.344;2023-11-21T09:38:09;95008.44;;;7.91;80.87
20027;BME280;10174;42.688;23.344;2023-11-21T09:40:36;95010.59;;;7.94;80.08
20027;BME280;10174;42.688;23.344;2023-11-21T09:43:25;95021.19;;;8.11;79.82
20027;BME280;10174;42.688;23.344;2023-11-21T09:45:57;95010.66;;;8.31;79.43
20027;BME280;10174;42.688;23.344;2023-11-21T09:48:26;94988.28;;;8.10;78.40
20027;BME280;10174;42.688;23.344;2023-11-21T09:50:53;94996.22;;;8.32;78.70
20027;BME280;10174;42.688;23.344;2023-11-21T09:53:20;94982.84;;;8.32;78.82
20027;BME280;10174;42.688;23.344;2023-11-21T09:55:47;94981.94;;;8.54;78.27
20027;BME280;10174;42.688;23.344;2023-11-21T09:58:14;94943.13;;;8.19;78.05
20027;BME280;10174;42.688;23.344;2023-11-21T10:00:44;94941.59;;;8.28;78.44
20027;BME280;10174;42.688;23.344;2023-11-21T10:03:10;94963.03;;;8.76;78.28
20027;BME280;10174;42.688;23.344;2023-11-21T10:05:37;94972.31;;;9.06;77.77
20027;BME280;10174;42.688;23.344;2023-11-21T10:08:12;94920.16;;;9.44;73.70
20027;BME280;10174;42.688;23.344;2023-11-21T10:10:43;94967.91;;;9.48;73.36
20027;BME280;10174;42.688;23.344;2023-11-21T10:13:12;94968.38;;;9.29;74.47
20027;BME280;10174;42.688;23.344;2023-11-21T10:15:38;94967.97;;;9.73;73.66
20027;BME280;10174;42.688;23.344;2023-11-21T10:18:04;94907.28;;;9.47;72.64
20027;BME280;10174;42.688;23.344;2023-11-21T10:20:31;94946.50;;;10.30;72.00
20027;BME280;10174;42.688;23.344;2023-11-21T10:22:59;94928.78;;;10.29;69.15
20027;BME280;10174;42.688;23.344;2023-11-21T10:25:24;94915.38;;;9.62;70.32
20027;BME280;10174;42.688;23.344;2023-11-21T10:27:58;94879.31;;;9.06;71.31
20027;BME280;10174;42.688;23.344;2023-11-21T10:30:33;94916.66;;;9.39;72.30
20027;BME280;10174;42.688;23.344;2023-11-21T10:33:02;94936.31;;;9.70;71.23
20027;BME280;10174;42.688;23.344;2023-11-21T10:35:44;94936.03;;;9.72;70.40
20027;BME280;10174;42.688;23.344;2023-11-21T10:38:13;94884.78;;;9.58;69.25
20027;BME280;10174;42.688;23.344;2023-11-21T10:40:40;94921.03;;;10.07;68.85
20027;BME280;10174;42.688;23.344;2023-11-21T10:43:08;94927.19;;;10.38;67.65
20027;BME280;10174;42.688;23.344;2023-11-21T10:45:38;94916.19;;;10.19;67.92
20027;BME280;10174;42.688;23.344;2023-11-21T10:48:08;94906.00;;;10.06;67.81
20027;BME280;10174;42.688;23.344;2023-11-21T10:50:35;94905.19;;;10.00;68.33
20027;BME280;10174;42.688;23.344;2023-11-21T10:53:04;94903.03;;;10.18;67.80
20027;BME280;10174;42.688;23.344;2023-11-21T10:55:31;94815.06;;;9.27;68.94
20027;BME280;10174;42.688;23.344;2023-11-21T10:57:59;94899.28;;;9.62;69.01
20027;BME280;10174;42.688;23.344;2023-11-21T11:00:26;94881.59;;;9.71;68.99
20027;BME280;10174;42.688;23.344;2023-11-21T11:02:53;94904.09;;;9.60;70.27
20027;BME280;10174;42.688;23.344;2023-11-21T11:05:25;94903.84;;;9.56;70.43
20027;BME280;10174;42.688;23.344;2023-11-21T11:08:04;94901.66;;;9.48;70.51
20027;BME280;10174;42.688;23.344;2023-11-21T11:10:31;94828.91;;;8.93;70.80
20027;BME280;10174;42.688;23.344;2023-11-21T11:12:57;94894.97;;;9.45;70.69
20027;BME280;10174;42.688;23.344;2023-11-21T11:15:25;94860.91;;;9.41;69.84
20027;BME280;10174;42.688;23.344;2023-11-21T11:17:51;94879.16;;;9.75;70.03
20027;BME280;10174;42.688;23.344;2023-11-21T11:20:17;94883.47;;;9.76;69.95
20027;BME280;10174;42.688;23.344;2023-11-21T11:25:41;94869.22;;;9.91;68.82
20027;BME280;10174;42.688;23.344;2023-11-21T11:28:07;94837.03;;;9.91;68.70
20027;BME280;10174;42.688;23.344;2023-11-21T11:31:04;94853.66;;;10.19;67.71
20027;BME280;10174;42.688;23.344;2023-11-21T11:33:53;94849.34;;;10.07;67.87
20027;BME280;10174;42.688;23.344;2023-11-21T11:36:36;94832.75;;;9.95;67.66
20027;BME280;10174;42.688;23.344;2023-11-21T11:39:03;94845.59;;;10.13;67.64
20027;BME280;10174;42.688;23.344;2023-11-21T11:41:50;94846.66;;;10.18;67.50
20027;BME280;10174;42.688;23.344;2023-11-21T11:47:15;94850.47;;;9.96;68.37
20027;BME280;10174;42.688;23.344;2023-11-21T11:50:00;94864.41;;;9.93;70.70
20027;BME280;10174;42.688;23.344;2023-11-21T11:52:35;94866.28;;;10.03;70.95
20027;BME280;10174;42.688;23.344;2023-11-21T11:55:06;94854.22;;;9.64;71.18
20027;BME280;10174;42.688;23.344;2023-11-21T11:57:35;94858.78;;;9.63;70.43
20027;BME280;10174;42.688;23.344;2023-11-21T12:00:20;94771.31;;;9.01;73.84
20027;BME280;10174;42.688;23.344;2023-11-21T12:02:58;94856.91;;;9.54;74.17
20027;BME280;10174;42.688;23.344;2023-11-21T12:05:27;94842.41;;;9.39;74.61
20027;BME280;10174;42.688;23.344;2023-11-21T12:07:54;94859.03;;;9.36;75.69
20027;BME280;10174;42.688;23.344;2023-11-21T12:10:46;94865.44;;;9.20;77.85
20027;BME280;10174;42.688;23.344;2023-11-21T12:13:14;94871.31;;;9.17;79.04
20027;BME280;10174;42.688;23.344;2023-11-21T12:15:39;94864.34;;;9.16;80.51
20027;BME280;10174;42.688;23.344;2023-11-21T12:18:07;94860.59;;;9.17;81.22
20027;BME280;10174;42.688;23.344;2023-11-21T12:20:33;94849.03;;;8.96;82.16
20027;BME280;10174;42.688;23.344;2023-11-21T12:23:04;94872.59;;;9.04;82.85
20027;BME280;10174;42.688;23.344;2023-11-21T12:25:31;94856.22;;;8.85;83.24
20027;BME280;10174;42.688;23.344;2023-11-21T12:27:57;94853.00;;;8.88;82.38
20027;BME280;10174;42.688;23.344;2023-11-21T12:30:25;94861.63;;;9.00;84.30
20027;BME280;10174;42.688;23.344;2023-11-21T12:32:54;94864.84;;;8.97;85.48
20027;BME280;10174;42.688;23.344;2023-11-21T12:35:22;94872.38;;;9.11;86.25
20027;BME280;10174;42.688;23.344;2023-11-21T12:37:48;94866.94;;;8.80;86.20
20027;BME280;10174;42.688;23.344;2023-11-21T12:40:15;94870.41;;;8.75;85.59
20027;BME280;10174;42.688;23.344;2023-11-21T12:42:42;94859.06;;;8.58;87.75
20027;BME280;10174;42.688;23.344;2023-11-21T12:45:18;94862.28;;;8.60;87.39
20027;BME280;10174;42.688;23.344;2023-11-21T12:47:44;94858.25;;;8.57;88.33
20027;BME280;10174;42.688;23.344;2023-11-21T12:50:19;94843.78;;;8.53;90.62
20027;BME280;10174;42.688;23.344;2023-11-21T12:52:49;94844.56;;;8.53;91.14
20027;BME280;10174;42.688;23.344;2023-11-21T12:55:21;94827.72;;;8.48;92.02
20027;BME280;10174;42.688;23.344;2023-11-21T12:57:52;94830.41;;;8.58;92.06
20027;BME280;10174;42.688;23.344;2023-11-21T13:00:22;94825.63;;;8.65;92.41